createdAt,value
2019-04-29T00:01:57.001Z,11.50
2019-04-29T00:06:02.710Z,11.50
2019-04-29T00:10:10.871Z,11.50
2019-04-29T00:14:16.800Z,11.40
2019-04-29T00:18:24.121Z,10.90
2019-04-29T00:22:29.788Z,10.90
2019-04-29T00:26:35.551Z,11.20
2019-04-29T00:30:41.447Z,11.20
2019-04-29T00:34:47.273Z,11.00
2019-04-29T00:39:12.577Z,10.90
2019-04-29T00:43:30.007Z,10.60
2019-04-29T00:47:35.772Z,10.70
2019-04-29T00:51:41.521Z,11.00
2019-04-29T00:55:48.894Z,11.20
2019-04-29T00:59:54.574Z,11.30
2019-04-29T01:04:00.321Z,11.20
2019-04-29T01:08:06.248Z,10.90
2019-04-29T01:12:11.956Z,10.90
2019-04-29T01:16:17.725Z,11.00
2019-04-29T01:20:24.450Z,11.20
2019-04-29T01:24:30.130Z,11.20
2019-04-29T01:28:37.440Z,11.20
2019-04-29T01:32:43.134Z,11.20
2019-04-29T01:36:48.825Z,11.10
2019-04-29T01:40:56.140Z,11.00
2019-04-29T01:45:01.889Z,10.90
2019-04-29T01:49:07.738Z,11.00
2019-04-29T01:53:13.413Z,10.90
2019-04-29T01:57:19.127Z,10.60
2019-04-29T02:01:25.044Z,10.80
2019-04-29T02:05:30.744Z,10.70
2019-04-29T02:09:38.051Z,10.40
2019-04-29T02:13:44.707Z,10.60
2019-04-29T02:17:50.388Z,10.90
2019-04-29T02:22:09.772Z,11.00
2019-04-29T02:26:15.460Z,10.90
2019-04-29T02:30:41.182Z,10.60
2019-04-29T02:34:46.867Z,10.70
2019-04-29T02:39:10.260Z,10.90
2019-04-29T02:43:17.721Z,10.90
2019-04-29T02:47:23.415Z,10.60
2019-04-29T02:51:48.333Z,10.40
2019-04-29T02:55:55.654Z,10.10
2019-04-29T03:00:03.213Z,10.50
2019-04-29T03:04:17.919Z,10.70
2019-04-29T03:08:24.058Z,10.50
2019-04-29T03:12:29.839Z,10.50
2019-04-29T03:16:35.726Z,10.50
2019-04-29T03:20:49.027Z,10.60
2019-04-29T03:24:55.757Z,10.70
2019-04-29T03:29:03.205Z,10.70
2019-04-29T03:33:08.884Z,10.30
2019-04-29T03:37:14.618Z,10.40
2019-04-29T03:41:20.311Z,10.40
2019-04-29T03:45:25.984Z,10.60
2019-04-29T03:49:31.745Z,10.30
2019-04-29T03:53:37.407Z,10.10
2019-04-29T03:57:43.090Z,9.80
2019-04-29T04:02:08.446Z,10.00
2019-04-29T04:06:15.771Z,10.20
2019-04-29T04:10:21.529Z,10.50
2019-04-29T04:14:28.180Z,10.70
2019-04-29T04:18:35.483Z,10.60
2019-04-29T04:22:48.214Z,10.30
2019-04-29T04:26:53.929Z,10.00
2019-04-29T04:30:59.604Z,10.10
2019-04-29T04:35:06.994Z,10.40
2019-04-29T04:39:12.723Z,10.60
2019-04-29T04:43:18.408Z,10.60
2019-04-29T04:47:24.090Z,10.70
2019-04-29T04:51:29.839Z,10.60
2019-04-29T04:55:38.360Z,10.80
2019-04-29T04:59:44.025Z,10.80
2019-04-29T05:03:50.685Z,10.80
2019-04-29T05:07:56.382Z,10.80
2019-04-29T05:12:02.091Z,10.90
2019-04-29T05:16:07.782Z,11.00
2019-04-29T05:20:13.693Z,11.00
2019-04-29T05:24:19.387Z,11.10
2019-04-29T05:28:25.186Z,11.10
2019-04-29T05:32:30.879Z,11.10
2019-04-29T05:36:39.345Z,11.10
2019-04-29T05:40:46.692Z,11.30
2019-04-29T05:44:56.922Z,11.50
2019-04-29T05:49:07.156Z,11.50
2019-04-29T05:53:16.409Z,11.60
2019-04-29T05:57:25.221Z,11.60
2019-04-29T06:01:31.502Z,11.70
2019-04-29T06:05:37.203Z,11.80
2019-04-29T06:09:42.892Z,11.90
2019-04-29T06:13:48.588Z,11.90
2019-04-29T06:17:54.428Z,12.10
2019-04-29T06:22:00.130Z,12.20
2019-04-29T06:26:05.821Z,12.20
2019-04-29T06:30:11.836Z,12.20
2019-04-29T06:34:18.491Z,12.30
2019-04-29T06:38:24.181Z,12.50
2019-04-29T06:42:29.864Z,12.60
2019-04-29T06:46:35.563Z,12.80
2019-04-29T06:50:41.322Z,12.90
2019-04-29T06:54:47.077Z,13.00
2019-04-29T06:58:52.835Z,12.90
2019-04-29T07:02:58.519Z,12.80
2019-04-29T07:07:04.349Z,12.90
2019-04-29T07:11:10.061Z,13.10
2019-04-29T07:15:15.942Z,13.20
2019-04-29T07:19:22.162Z,13.40
2019-04-29T07:23:29.058Z,13.70
2019-04-29T07:27:42.792Z,14.10
2019-04-29T07:31:42.241Z,14.30
2019-04-29T07:35:49.593Z,14.30
2019-04-29T07:39:55.396Z,14.50
2019-04-29T07:44:01.095Z,14.70
2019-04-29T07:48:07.736Z,14.80
2019-04-29T07:52:14.540Z,15.00
2019-04-29T07:56:20.967Z,15.00
2019-04-29T08:00:34.955Z,15.10
2019-04-29T08:04:40.646Z,15.30
2019-04-29T08:08:54.735Z,15.30
2019-04-29T08:12:55.963Z,15.20
2019-04-29T08:17:01.660Z,15.20
2019-04-29T08:21:10.300Z,15.30
2019-04-29T08:25:14.878Z,15.50
2019-04-29T08:29:20.564Z,15.60
2019-04-29T08:33:26.256Z,15.80
2019-04-29T08:37:31.941Z,15.80
2019-04-29T08:41:37.775Z,15.90
2019-04-29T08:45:47.781Z,16.20
2019-04-29T08:49:53.487Z,16.30
2019-04-29T08:53:59.152Z,16.50
2019-04-29T08:58:07.015Z,16.70
2019-04-29T09:02:12.424Z,16.80
2019-04-29T09:06:18.106Z,16.60
2019-04-29T09:10:23.888Z,16.90
2019-04-29T09:14:29.573Z,17.30
2019-04-29T09:18:35.264Z,17.50
2019-04-29T09:22:45.497Z,17.60
2019-04-29T09:26:53.793Z,17.50
2019-04-29T09:30:59.475Z,17.60
2019-04-29T09:35:05.846Z,18.00
2019-04-29T09:39:11.589Z,18.10
2019-04-29T09:43:25.622Z,18.10
2019-04-29T09:47:29.525Z,18.20
2019-04-29T09:51:36.277Z,18.20
2019-04-29T09:55:41.976Z,18.40
2019-04-29T09:59:51.792Z,18.70
2019-04-29T10:04:01.770Z,19.00
2019-04-29T10:08:07.738Z,19.20
2019-04-29T10:12:13.967Z,19.20
2019-04-29T10:16:31.691Z,19.30
2019-04-29T10:20:37.297Z,19.40
2019-04-29T10:24:43.061Z,18.90
2019-04-29T10:28:53.057Z,18.70
2019-04-29T10:32:58.836Z,18.90
2019-04-29T10:37:04.766Z,19.00
2019-04-29T10:41:19.441Z,18.90
2019-04-29T10:45:26.839Z,19.00
2019-04-29T10:49:34.853Z,19.00
2019-04-29T10:53:41.736Z,19.10
2019-04-29T10:57:49.629Z,19.30
2019-04-29T11:02:22.993Z,19.40
2019-04-29T11:06:31.334Z,19.60
2019-04-29T11:10:36.561Z,19.80
2019-04-29T11:14:42.393Z,19.80
2019-04-29T11:18:48.184Z,19.80
2019-04-29T11:22:59.441Z,20.00
2019-04-29T11:27:18.906Z,20.00
2019-04-29T11:31:24.803Z,19.80
2019-04-29T11:35:32.266Z,19.80
2019-04-29T11:39:38.119Z,19.70
2019-04-29T11:43:46.721Z,19.80
2019-04-29T11:47:51.611Z,19.80
2019-04-29T11:52:09.070Z,20.00
2019-04-29T11:56:04.997Z,20.00
2019-04-29T12:00:30.783Z,19.70
2019-04-29T12:04:43.773Z,19.30
2019-04-29T12:08:53.375Z,19.40
2019-04-29T12:12:58.731Z,19.60
2019-04-29T12:17:21.279Z,19.90
2019-04-29T12:21:28.601Z,20.00
2019-04-29T12:25:36.465Z,20.10
2019-04-29T12:29:41.668Z,20.10
2019-04-29T12:33:49.008Z,19.70
2019-04-29T12:37:56.337Z,19.10
2019-04-29T12:42:20.522Z,19.30
2019-04-29T12:46:26.036Z,19.10
2019-04-29T12:50:33.132Z,19.10
2019-04-29T12:54:42.114Z,19.50
2019-04-29T12:58:50.478Z,19.70
2019-04-29T13:02:59.830Z,19.40
2019-04-29T13:07:09.800Z,19.50
2019-04-29T13:11:19.033Z,19.40
2019-04-29T13:15:33.319Z,19.40
2019-04-29T13:19:40.304Z,19.40
2019-04-29T13:23:59.144Z,19.70
2019-04-29T13:27:56.096Z,19.80
2019-04-29T13:32:01.730Z,19.80
2019-04-29T13:36:09.298Z,19.70
2019-04-29T13:40:15.641Z,19.70
2019-04-29T13:44:21.388Z,19.50
2019-04-29T13:48:28.692Z,19.30
2019-04-29T13:52:34.396Z,19.10
2019-04-29T13:56:55.497Z,18.90
2019-04-29T14:00:47.247Z,18.90
2019-04-29T14:04:56.002Z,18.90
2019-04-29T14:09:03.955Z,18.90
2019-04-29T14:13:16.298Z,18.70
2019-04-29T14:17:26.475Z,18.60
2019-04-29T14:21:30.056Z,18.60
2019-04-29T14:25:33.212Z,18.40
2019-04-29T14:29:38.881Z,18.40
2019-04-29T14:33:48.654Z,18.50
2019-04-29T14:37:55.848Z,18.40
2019-04-29T14:42:03.354Z,18.40
2019-04-29T14:46:26.562Z,18.50
2019-04-29T14:50:32.407Z,18.40
2019-04-29T14:54:41.844Z,18.20
2019-04-29T14:58:45.631Z,18.30
2019-04-29T15:02:51.375Z,18.00
2019-04-29T15:06:57.117Z,18.10
2019-04-29T15:11:04.235Z,18.20
2019-04-29T15:15:16.859Z,18.00
2019-04-29T15:19:39.809Z,17.70
2019-04-29T15:23:47.210Z,17.60
2019-04-29T15:27:52.898Z,17.70
2019-04-29T15:31:58.608Z,17.70
2019-04-29T15:36:04.277Z,17.80
2019-04-29T15:40:10.543Z,17.70
2019-04-29T15:44:20.116Z,17.60
2019-04-29T15:48:23.584Z,17.50
2019-04-29T15:52:29.376Z,17.60
2019-04-29T15:56:38.548Z,17.50
2019-04-29T16:00:42.488Z,17.40
2019-04-29T16:04:55.610Z,17.30
2019-04-29T16:09:03.088Z,17.20
2019-04-29T16:13:14.902Z,17.10
2019-04-29T16:17:20.897Z,17.00
2019-04-29T16:21:32.174Z,17.00
2019-04-29T16:25:40.361Z,16.90
2019-04-29T16:29:46.229Z,17.00
2019-04-29T16:33:54.591Z,16.80
2019-04-29T16:37:56.432Z,16.60
2019-04-29T16:42:07.053Z,16.60
2019-04-29T16:46:14.470Z,16.50
2019-04-29T16:50:20.189Z,16.40
2019-04-29T16:54:28.441Z,16.30
2019-04-29T16:58:33.730Z,16.40
2019-04-29T17:08:09.231Z,16.20
2019-04-29T17:12:16.516Z,16.10
2019-04-29T17:16:23.894Z,16.00
2019-04-29T17:20:29.802Z,15.90
2019-04-29T17:24:35.495Z,15.80
2019-04-29T17:28:42.834Z,15.80
2019-04-29T17:32:50.854Z,15.80
2019-04-29T17:36:56.804Z,15.70
2019-04-29T17:41:02.560Z,15.70
2019-04-29T17:45:12.337Z,15.70
2019-04-29T17:49:18.167Z,15.60
2019-04-29T17:53:25.582Z,15.60
2019-04-29T17:57:34.070Z,15.40
2019-04-29T18:01:46.824Z,15.30
2019-04-29T18:06:05.472Z,15.20
2019-04-29T18:10:29.654Z,15.20
2019-04-29T18:14:39.098Z,15.10
2019-04-29T18:18:46.616Z,15.00
2019-04-29T18:23:11.196Z,14.90
2019-04-29T18:27:25.333Z,14.90
2019-04-29T18:31:31.890Z,14.90
2019-04-29T18:35:38.548Z,14.80
2019-04-29T18:39:44.235Z,14.80
2019-04-29T18:43:49.989Z,14.70
2019-04-29T18:47:55.687Z,14.30
2019-04-29T18:52:02.278Z,14.30
2019-04-29T18:56:08.973Z,14.40
2019-04-29T19:00:19.926Z,14.10
2019-04-29T19:04:25.920Z,14.10
2019-04-29T19:08:31.953Z,13.80
2019-04-29T19:12:39.370Z,13.40
2019-04-29T19:16:45.874Z,13.40
2019-04-29T19:20:52.736Z,13.10
2019-04-29T19:24:59.150Z,13.50
2019-04-29T19:29:06.242Z,13.30
2019-04-29T19:33:12.625Z,12.90
2019-04-29T19:37:18.400Z,12.90
2019-04-29T19:41:25.625Z,12.80
2019-04-29T19:45:31.799Z,12.80
2019-04-29T19:49:40.177Z,13.00
2019-04-29T19:53:49.149Z,13.00
2019-04-29T19:57:52.865Z,13.20
2019-04-29T20:02:05.383Z,13.10
2019-04-29T20:06:21.368Z,12.80
2019-04-29T20:10:21.918Z,12.60
2019-04-29T20:14:33.490Z,12.60
2019-04-29T20:18:40.442Z,12.50
2019-04-29T20:22:50.586Z,12.40
2019-04-29T20:26:52.203Z,12.50
2019-04-29T20:31:14.802Z,12.40
2019-04-29T20:35:08.879Z,12.70
2019-04-29T20:39:19.832Z,12.70
2019-04-29T20:43:25.948Z,12.60
2019-04-29T20:47:37.605Z,12.40
2019-04-29T20:51:48.631Z,12.10
2019-04-29T20:55:46.110Z,12.20
2019-04-29T20:59:51.994Z,12.30
2019-04-29T21:03:58.019Z,12.20
2019-04-29T21:08:14.049Z,12.30
2019-04-29T21:12:12.746Z,12.30
2019-04-29T21:16:22.839Z,12.20
2019-04-29T21:20:27.517Z,12.10
2019-04-29T21:24:35.174Z,12.10
2019-04-29T21:28:41.810Z,12.20
2019-04-29T21:32:48.288Z,12.60
2019-04-29T21:37:06.695Z,12.30
2019-04-29T21:41:20.307Z,12.30
2019-04-29T21:45:26.290Z,12.10
2019-04-29T21:49:43.310Z,12.00
2019-04-29T21:53:40.406Z,12.20
2019-04-29T21:57:46.174Z,12.30
2019-04-29T22:01:51.873Z,12.40
2019-04-29T22:06:00.183Z,12.50
2019-04-29T22:10:07.039Z,12.70
2019-04-29T22:14:14.059Z,12.80
2019-04-29T22:18:22.210Z,12.50
2019-04-29T22:22:30.667Z,12.30
2019-04-29T22:26:35.293Z,12.00
2019-04-29T22:30:41.113Z,12.10
2019-04-29T22:34:49.497Z,12.10
2019-04-29T22:38:55.827Z,11.90
2019-04-29T22:43:08.929Z,12.00
2019-04-29T22:47:10.718Z,12.00
2019-04-29T22:51:18.844Z,12.20
2019-04-29T22:55:25.317Z,12.60
2019-04-29T22:59:31.076Z,12.70
2019-04-29T23:03:37.516Z,12.60
2019-04-29T23:07:45.573Z,12.70
2019-04-29T23:11:52.309Z,12.80
2019-04-29T23:16:01.090Z,12.90
2019-04-29T23:20:28.819Z,12.90
2019-04-29T23:24:36.388Z,13.00
2019-04-29T23:28:42.123Z,13.00
2019-04-29T23:32:47.918Z,13.00
2019-04-29T23:36:53.600Z,13.00
2019-04-29T23:40:59.420Z,12.80
2019-04-29T23:45:06.578Z,12.70
2019-04-29T23:49:12.345Z,12.80
2019-04-29T23:53:20.747Z,13.10
2019-04-29T23:57:29.778Z,12.90
